This is the latest recevied weather packets stored in our database for station/object DH8TOM-4. If no packets are shown the sender has not sent any weather packets the latest 10 day(s).
| Time | Temp. | Humidity | Pressure | Rain* | Wind** | Luminosity | Snow |
|---|---|---|---|---|---|---|---|
| 1777710497 | 28.89° C | 38% | 1022 hPa | - | - | - | - |
| 1777710196 | 28.89° C | 37% | 1022 hPa | - | - | - | - |
| 1777709895 | 28.89° C | 38% | 1022.1 hPa | - | - | - | - |
| 1777709593 | 28.89° C | 38% | 1022.1 hPa | - | - | - | - |
| 1777709294 | 28.89° C | 38% | 1022.3 hPa | - | - | - | - |
| 1777708992 | 28.89° C | 38% | 1022.3 hPa | - | - | - | - |
| 1777708691 | 28.33° C | 38% | 1022.4 hPa | - | - | - | - |
| 1777708389 | 28.33° C | 38% | 1022.4 hPa | - | - | - | - |
| 1777708090 | 28.33° C | 38% | 1022.4 hPa | - | - | - | - |
| 1777707788 | 27.78° C | 40% | 1022.4 hPa | - | - | - | - |
| 1777707486 | 27.78° C | 40% | 1022.4 hPa | - | - | - | - |
| 1777707187 | 26.67° C | 41% | 1022.4 hPa | - | - | - | - |
| 1777706884 | 26.67° C | 41% | 1022.4 hPa | - | - | - | - |
| 1777706584 | 26.11° C | 41% | 1022.4 hPa | - | - | - | - |
| 1777706283 | 26.11° C | 41% | 1022.4 hPa | - | - | - | - |
| 1777705982 | 26.11° C | 41% | 1022.4 hPa | - | - | - | - |
| 1777705680 | 26.11° C | 41% | 1022.4 hPa | - | - | - | - |
| 1777705382 | 26.11° C | 41% | 1022.4 hPa | - | - | - | - |
| 1777705078 | 26.11° C | 41% | 1022.4 hPa | - | - | - | - |
| 1777704779 | 25.56° C | 44% | 1022.5 hPa | - | - | - | - |
| 1777704477 | 25.56° C | 44% | 1022.5 hPa | - | - | - | - |
| 1777704178 | 22.78° C | 49% | 1022.5 hPa | - | - | - | - |
| 1777703875 | 22.78° C | 49% | 1022.5 hPa | - | - | - | - |
| 1777703574 | 20° C | 53% | 1022.5 hPa | - | - | - | - |
| 1777703273 | 18.89° C | 56% | 1022.4 hPa | - | - | - | - |
* Rain since midnight (hover to see other rain measurements)
** Current wind speed in m/s (hover to see current wind gust speed)